sensor_id;sensor_type;location;lat;lon;timestamp;P1;durP1;ratioP1;P2;durP2;ratioP2
18818;SDS011;9537;45.594;9.294;2023-01-29T00:00:51;42.23;;;21.87;;
18818;SDS011;9537;45.594;9.294;2023-01-29T00:01:52;41.57;;;21.23;;
18818;SDS011;9537;45.594;9.294;2023-01-29T00:02:54;36.13;;;20.57;;
18818;SDS011;9537;45.594;9.294;2023-01-29T00:03:55;34.77;;;20.70;;
18818;SDS011;9537;45.594;9.294;2023-01-29T00:04:57;39.30;;;20.50;;
18818;SDS011;9537;45.594;9.294;2023-01-29T00:05:59;39.57;;;20.53;;
18818;SDS011;9537;45.594;9.294;2023-01-29T00:07:05;32.07;;;19.10;;
18818;SDS011;9537;45.594;9.294;2023-01-29T00:08:07;37.93;;;20.90;;
18818;SDS011;9537;45.594;9.294;2023-01-29T00:09:08;38.60;;;21.10;;
18818;SDS011;9537;45.594;9.294;2023-01-29T00:10:11;40.30;;;20.23;;
18818;SDS011;9537;45.594;9.294;2023-01-29T00:11:12;36.37;;;20.23;;
18818;SDS011;9537;45.594;9.294;2023-01-29T00:12:17;38.50;;;20.90;;
18818;SDS011;9537;45.594;9.294;2023-01-29T00:13:18;38.70;;;20.80;;
18818;SDS011;9537;45.594;9.294;2023-01-29T00:14:20;35.53;;;20.23;;
18818;SDS011;9537;45.594;9.294;2023-01-29T00:15:22;44.07;;;21.70;;
18818;SDS011;9537;45.594;9.294;2023-01-29T00:16:24;39.70;;;21.57;;
18818;SDS011;9537;45.594;9.294;2023-01-29T00:17:25;42.67;;;22.63;;
18818;SDS011;9537;45.594;9.294;2023-01-29T00:18:27;42.87;;;21.70;;
18818;SDS011;9537;45.594;9.294;2023-01-29T00:19:29;43.67;;;22.27;;
18818;SDS011;9537;45.594;9.294;2023-01-29T00:20:31;40.53;;;21.33;;
18818;SDS011;9537;45.594;9.294;2023-01-29T00:21:33;38.63;;;21.60;;
18818;SDS011;9537;45.594;9.294;2023-01-29T00:22:35;36.17;;;19.93;;
18818;SDS011;9537;45.594;9.294;2023-01-29T00:23:36;35.63;;;19.90;;
18818;SDS011;9537;45.594;9.294;2023-01-29T00:24:38;38.50;;;21.23;;
18818;SDS011;9537;45.594;9.294;2023-01-29T00:25:39;41.93;;;21.30;;
18818;SDS011;9537;45.594;9.294;2023-01-29T00:26:41;36.33;;;20.13;;
18818;SDS011;9537;45.594;9.294;2023-01-29T00:27:43;35.47;;;19.80;;
18818;SDS011;9537;45.594;9.294;2023-01-29T00:28:44;38.47;;;20.47;;
18818;SDS011;9537;45.594;9.294;2023-01-29T00:29:46;36.23;;;18.87;;
18818;SDS011;9537;45.594;9.294;2023-01-29T00:31:09;36.43;;;20.03;;
18818;SDS011;9537;45.594;9.294;2023-01-29T00:32:14;35.30;;;20.73;;
18818;SDS011;9537;45.594;9.294;2023-01-29T00:33:14;32.77;;;19.33;;
18818;SDS011;9537;45.594;9.294;2023-01-29T00:34:16;34.80;;;19.23;;
18818;SDS011;9537;45.594;9.294;2023-01-29T00:35:17;34.93;;;19.50;;
18818;SDS011;9537;45.594;9.294;2023-01-29T00:36:20;35.23;;;19.90;;
18818;SDS011;9537;45.594;9.294;2023-01-29T00:37:21;34.93;;;20.27;;
18818;SDS011;9537;45.594;9.294;2023-01-29T00:38:23;33.50;;;18.60;;
18818;SDS011;9537;45.594;9.294;2023-01-29T00:39:24;35.30;;;20.23;;
18818;SDS011;9537;45.594;9.294;2023-01-29T00:40:37;31.13;;;18.40;;
18818;SDS011;9537;45.594;9.294;2023-01-29T00:41:57;36.27;;;20.17;;
18818;SDS011;9537;45.594;9.294;2023-01-29T00:43:16;37.50;;;19.97;;
18818;SDS011;9537;45.594;9.294;2023-01-29T00:44:36;34.03;;;18.27;;
18818;SDS011;9537;45.594;9.294;2023-01-29T00:45:55;35.20;;;19.20;;
18818;SDS011;9537;45.594;9.294;2023-01-29T00:46:59;33.70;;;19.43;;
18818;SDS011;9537;45.594;9.294;2023-01-29T00:48:00;39.27;;;19.73;;
18818;SDS011;9537;45.594;9.294;2023-01-29T00:49:02;35.27;;;19.90;;
18818;SDS011;9537;45.594;9.294;2023-01-29T00:50:04;35.80;;;18.00;;
18818;SDS011;9537;45.594;9.294;2023-01-29T00:51:08;35.30;;;19.80;;
18818;SDS011;9537;45.594;9.294;2023-01-29T00:52:09;36.57;;;18.50;;
18818;SDS011;9537;45.594;9.294;2023-01-29T00:53:26;38.73;;;19.20;;
18818;SDS011;9537;45.594;9.294;2023-01-29T00:54:27;34.97;;;18.83;;
18818;SDS011;9537;45.594;9.294;2023-01-29T00:55:29;35.73;;;20.40;;
18818;SDS011;9537;45.594;9.294;2023-01-29T00:56:30;36.87;;;19.53;;
18818;SDS011;9537;45.594;9.294;2023-01-29T00:57:33;32.53;;;17.60;;
18818;SDS011;9537;45.594;9.294;2023-01-29T00:58:34;31.80;;;17.73;;
18818;SDS011;9537;45.594;9.294;2023-01-29T00:59:36;38.47;;;19.53;;
18818;SDS011;9537;45.594;9.294;2023-01-29T01:00:37;38.03;;;20.97;;
18818;SDS011;9537;45.594;9.294;2023-01-29T01:01:39;31.03;;;19.97;;
18818;SDS011;9537;45.594;9.294;2023-01-29T01:03:14;39.50;;;24.27;;
18818;SDS011;9537;45.594;9.294;2023-01-29T01:04:16;31.40;;;19.20;;
18818;SDS011;9537;45.594;9.294;2023-01-29T01:05:17;39.83;;;20.53;;
18818;SDS011;9537;45.594;9.294;2023-01-29T01:06:20;40.47;;;19.90;;
18818;SDS011;9537;45.594;9.294;2023-01-29T01:07:21;34.40;;;19.67;;
18818;SDS011;9537;45.594;9.294;2023-01-29T01:08:23;35.00;;;20.30;;
18818;SDS011;9537;45.594;9.294;2023-01-29T01:09:43;34.47;;;18.80;;
18818;SDS011;9537;45.594;9.294;2023-01-29T01:11:03;40.47;;;18.70;;
18818;SDS011;9537;45.594;9.294;2023-01-29T01:12:05;36.90;;;17.60;;
18818;SDS011;9537;45.594;9.294;2023-01-29T01:13:07;34.57;;;20.10;;
18818;SDS011;9537;45.594;9.294;2023-01-29T01:14:08;39.63;;;19.87;;
18818;SDS011;9537;45.594;9.294;2023-01-29T01:15:10;41.53;;;25.77;;
18818;SDS011;9537;45.594;9.294;2023-01-29T01:16:12;33.60;;;19.00;;
18818;SDS011;9537;45.594;9.294;2023-01-29T01:17:15;36.37;;;20.37;;
18818;SDS011;9537;45.594;9.294;2023-01-29T01:18:18;36.97;;;20.50;;
18818;SDS011;9537;45.594;9.294;2023-01-29T01:19:21;36.47;;;19.53;;
18818;SDS011;9537;45.594;9.294;2023-01-29T01:20:22;36.47;;;19.67;;
18818;SDS011;9537;45.594;9.294;2023-01-29T01:21:25;34.93;;;19.63;;
18818;SDS011;9537;45.594;9.294;2023-01-29T01:22:29;37.87;;;20.83;;
18818;SDS011;9537;45.594;9.294;2023-01-29T01:23:31;35.27;;;21.03;;
18818;SDS011;9537;45.594;9.294;2023-01-29T01:24:32;36.40;;;20.20;;
18818;SDS011;9537;45.594;9.294;2023-01-29T01:25:34;35.93;;;19.57;;
18818;SDS011;9537;45.594;9.294;2023-01-29T01:26:35;39.33;;;19.53;;
18818;SDS011;9537;45.594;9.294;2023-01-29T01:27:37;36.70;;;21.30;;
18818;SDS011;9537;45.594;9.294;2023-01-29T01:28:40;39.50;;;19.53;;
18818;SDS011;9537;45.594;9.294;2023-01-29T01:29:43;42.23;;;19.97;;
18818;SDS011;9537;45.594;9.294;2023-01-29T01:30:44;38.33;;;23.77;;
18818;SDS011;9537;45.594;9.294;2023-01-29T01:31:46;39.37;;;24.20;;
18818;SDS011;9537;45.594;9.294;2023-01-29T01:32:47;36.80;;;19.33;;
18818;SDS011;9537;45.594;9.294;2023-01-29T01:33:51;36.60;;;20.40;;
18818;SDS011;9537;45.594;9.294;2023-01-29T01:34:53;32.23;;;19.00;;
18818;SDS011;9537;45.594;9.294;2023-01-29T01:35:55;36.37;;;19.97;;
18818;SDS011;9537;45.594;9.294;2023-01-29T01:37:00;40.13;;;25.23;;
18818;SDS011;9537;45.594;9.294;2023-01-29T01:38:02;36.80;;;21.43;;
18818;SDS011;9537;45.594;9.294;2023-01-29T01:39:03;41.17;;;24.70;;
18818;SDS011;9537;45.594;9.294;2023-01-29T01:40:07;35.63;;;18.57;;
18818;SDS011;9537;45.594;9.294;2023-01-29T01:41:12;32.10;;;18.80;;
18818;SDS011;9537;45.594;9.294;2023-01-29T01:42:15;33.83;;;18.37;;
18818;SDS011;9537;45.594;9.294;2023-01-29T01:43:16;35.03;;;20.27;;
18818;SDS011;9537;45.594;9.294;2023-01-29T01:45:58;36.87;;;21.40;;
18818;SDS011;9537;45.594;9.294;2023-01-29T01:47:00;41.07;;;23.73;;
18818;SDS011;9537;45.594;9.294;2023-01-29T01:48:02;39.60;;;24.70;;
18818;SDS011;9537;45.594;9.294;2023-01-29T01:49:08;37.77;;;22.03;;
18818;SDS011;9537;45.594;9.294;2023-01-29T01:50:16;36.67;;;22.80;;
18818;SDS011;9537;45.594;9.294;2023-01-29T01:51:22;36.40;;;23.20;;
18818;SDS011;9537;45.594;9.294;2023-01-29T01:52:25;39.23;;;23.87;;
18818;SDS011;9537;45.594;9.294;2023-01-29T01:53:30;36.63;;;18.73;;
18818;SDS011;9537;45.594;9.294;2023-01-29T01:54:35;32.37;;;18.70;;
18818;SDS011;9537;45.594;9.294;2023-01-29T01:55:38;33.80;;;18.90;;
18818;SDS011;9537;45.594;9.294;2023-01-29T01:56:45;34.17;;;20.53;;
18818;SDS011;9537;45.594;9.294;2023-01-29T01:57:50;30.07;;;17.40;;
18818;SDS011;9537;45.594;9.294;2023-01-29T01:58:56;30.60;;;19.10;;
18818;SDS011;9537;45.594;9.294;2023-01-29T01:59:59;35.37;;;20.67;;
18818;SDS011;9537;45.594;9.294;2023-01-29T02:01:11;39.00;;;23.47;;
18818;SDS011;9537;45.594;9.294;2023-01-29T02:02:13;36.00;;;23.27;;
18818;SDS011;9537;45.594;9.294;2023-01-29T02:03:36;34.23;;;21.00;;
18818;SDS011;9537;45.594;9.294;2023-01-29T02:05:01;45.20;;;22.80;;
18818;SDS011;9537;45.594;9.294;2023-01-29T02:06:20;38.17;;;24.57;;
18818;SDS011;9537;45.594;9.294;2023-01-29T02:07:40;40.13;;;24.93;;
18818;SDS011;9537;45.594;9.294;2023-01-29T02:09:03;34.95;;;22.23;;
18818;SDS011;9537;45.594;9.294;2023-01-29T02:10:27;33.20;;;22.60;;
18818;SDS011;9537;45.594;9.294;2023-01-29T02:11:32;32.53;;;22.13;;
18818;SDS011;9537;45.594;9.294;2023-01-29T02:12:34;34.73;;;22.87;;
18818;SDS011;9537;45.594;9.294;2023-01-29T02:13:37;39.23;;;23.97;;
18818;SDS011;9537;45.594;9.294;2023-01-29T02:14:38;34.23;;;18.97;;
18818;SDS011;9537;45.594;9.294;2023-01-29T02:15:41;38.87;;;24.37;;
18818;SDS011;9537;45.594;9.294;2023-01-29T02:16:46;38.70;;;23.80;;
18818;SDS011;9537;45.594;9.294;2023-01-29T02:17:48;37.30;;;23.83;;
18818;SDS011;9537;45.594;9.294;2023-01-29T02:18:49;35.53;;;23.98;;
18818;SDS011;9537;45.594;9.294;2023-01-29T02:19:53;37.03;;;23.20;;
18818;SDS011;9537;45.594;9.294;2023-01-29T02:21:04;35.05;;;21.60;;
18818;SDS011;9537;45.594;9.294;2023-01-29T02:25:58;39.33;;;23.80;;
18818;SDS011;9537;45.594;9.294;2023-01-29T02:27:20;36.80;;;24.70;;
18818;SDS011;9537;45.594;9.294;2023-01-29T02:28:34;33.77;;;21.87;;
18818;SDS011;9537;45.594;9.294;2023-01-29T02:29:43;35.80;;;23.97;;
18818;SDS011;9537;45.594;9.294;2023-01-29T02:30:55;38.83;;;23.00;;
18818;SDS011;9537;45.594;9.294;2023-01-29T02:32:07;35.60;;;22.80;;
18818;SDS011;9537;45.594;9.294;2023-01-29T02:33:18;32.72;;;21.02;;
18818;SDS011;9537;45.594;9.294;2023-01-29T02:34:34;38.70;;;21.80;;
18818;SDS011;9537;45.594;9.294;2023-01-29T02:36:03;35.57;;;22.20;;
18818;SDS011;9537;45.594;9.294;2023-01-29T02:37:13;34.50;;;23.33;;
18818;SDS011;9537;45.594;9.294;2023-01-29T02:38:16;31.87;;;19.20;;
18818;SDS011;9537;45.594;9.294;2023-01-29T02:39:27;33.10;;;20.48;;
18818;SDS011;9537;45.594;9.294;2023-01-29T02:40:34;36.57;;;21.63;;
18818;SDS011;9537;45.594;9.294;2023-01-29T02:41:44;37.23;;;23.70;;
18818;SDS011;9537;45.594;9.294;2023-01-29T02:42:51;34.75;;;22.58;;
18818;SDS011;9537;45.594;9.294;2023-01-29T02:44:04;42.13;;;23.97;;
18818;SDS011;9537;45.594;9.294;2023-01-29T02:45:14;33.40;;;18.07;;
18818;SDS011;9537;45.594;9.294;2023-01-29T02:46:20;32.67;;;17.93;;
18818;SDS011;9537;45.594;9.294;2023-01-29T02:47:32;32.07;;;17.73;;
18818;SDS011;9537;45.594;9.294;2023-01-29T02:48:40;27.87;;;15.97;;
18818;SDS011;9537;45.594;9.294;2023-01-29T02:49:47;32.67;;;17.07;;
18818;SDS011;9537;45.594;9.294;2023-01-29T02:50:53;30.40;;;15.43;;
18818;SDS011;9537;45.594;9.294;2023-01-29T02:51:59;36.10;;;16.88;;
18818;SDS011;9537;45.594;9.294;2023-01-29T02:53:07;32.40;;;18.53;;
18818;SDS011;9537;45.594;9.294;2023-01-29T02:54:15;29.23;;;16.52;;
18818;SDS011;9537;45.594;9.294;2023-01-29T02:55:22;35.88;;;22.73;;
18818;SDS011;9537;45.594;9.294;2023-01-29T02:56:29;34.15;;;20.70;;
18818;SDS011;9537;45.594;9.294;2023-01-29T02:57:38;36.17;;;21.50;;
18818;SDS011;9537;45.594;9.294;2023-01-29T02:58:43;32.72;;;17.15;;
18818;SDS011;9537;45.594;9.294;2023-01-29T02:59:51;30.75;;;17.95;;
18818;SDS011;9537;45.594;9.294;2023-01-29T03:00:55;35.22;;;18.38;;
18818;SDS011;9537;45.594;9.294;2023-01-29T03:02:04;29.90;;;16.45;;
18818;SDS011;9537;45.594;9.294;2023-01-29T03:03:09;29.10;;;17.02;;
18818;SDS011;9537;45.594;9.294;2023-01-29T03:04:19;29.42;;;17.40;;
18818;SDS011;9537;45.594;9.294;2023-01-29T03:05:25;32.10;;;17.48;;
18818;SDS011;9537;45.594;9.294;2023-01-29T03:06:32;31.43;;;19.00;;
18818;SDS011;9537;45.594;9.294;2023-01-29T03:07:37;28.33;;;15.93;;
18818;SDS011;9537;45.594;9.294;2023-01-29T03:08:46;36.67;;;22.58;;
18818;SDS011;9537;45.594;9.294;2023-01-29T03:09:53;34.15;;;17.27;;
18818;SDS011;9537;45.594;9.294;2023-01-29T03:10:56;29.03;;;17.27;;
18818;SDS011;9537;45.594;9.294;2023-01-29T03:12:06;35.00;;;16.60;;
18818;SDS011;9537;45.594;9.294;2023-01-29T03:13:28;29.23;;;17.00;;
18818;SDS011;9537;45.594;9.294;2023-01-29T03:14:36;31.40;;;18.07;;
18818;SDS011;9537;45.594;9.294;2023-01-29T03:15:58;35.57;;;17.97;;
18818;SDS011;9537;45.594;9.294;2023-01-29T03:17:06;32.73;;;17.07;;
18818;SDS011;9537;45.594;9.294;2023-01-29T03:18:10;33.27;;;17.97;;
18818;SDS011;9537;45.594;9.294;2023-01-29T03:19:17;30.33;;;17.30;;
18818;SDS011;9537;45.594;9.294;2023-01-29T03:20:21;29.57;;;17.40;;
18818;SDS011;9537;45.594;9.294;2023-01-29T03:21:29;27.00;;;16.67;;
18818;SDS011;9537;45.594;9.294;2023-01-29T03:22:59;31.20;;;17.15;;
18818;SDS011;9537;45.594;9.294;2023-01-29T03:24:05;31.25;;;17.08;;
18818;SDS011;9537;45.594;9.294;2023-01-29T03:25:28;31.80;;;21.73;;
18818;SDS011;9537;45.594;9.294;2023-01-29T03:26:49;36.37;;;20.43;;
18818;SDS011;9537;45.594;9.294;2023-01-29T03:28:11;32.92;;;20.08;;
18818;SDS011;9537;45.594;9.294;2023-01-29T03:29:34;34.75;;;21.40;;
18818;SDS011;9537;45.594;9.294;2023-01-29T03:30:59;37.13;;;22.38;;
18818;SDS011;9537;45.594;9.294;2023-01-29T03:32:22;33.20;;;21.17;;
18818;SDS011;9537;45.594;9.294;2023-01-29T03:33:26;35.65;;;20.70;;
18818;SDS011;9537;45.594;9.294;2023-01-29T03:34:32;32.92;;;16.80;;
18818;SDS011;9537;45.594;9.294;2023-01-29T03:35:39;32.43;;;16.57;;
18818;SDS011;9537;45.594;9.294;2023-01-29T03:36:49;34.47;;;19.77;;
18818;SDS011;9537;45.594;9.294;2023-01-29T03:37:55;33.15;;;16.52;;
18818;SDS011;9537;45.594;9.294;2023-01-29T03:38:56;32.00;;;17.40;;
18818;SDS011;9537;45.594;9.294;2023-01-29T03:39:58;31.03;;;17.20;;
18818;SDS011;9537;45.594;9.294;2023-01-29T03:41:01;34.53;;;17.80;;
18818;SDS011;9537;45.594;9.294;2023-01-29T03:42:12;33.47;;;22.03;;
18818;SDS011;9537;45.594;9.294;2023-01-29T03:43:21;31.67;;;16.53;;
18818;SDS011;9537;45.594;9.294;2023-01-29T03:44:33;29.85;;;16.08;;
18818;SDS011;9537;45.594;9.294;2023-01-29T03:45:45;31.83;;;15.53;;
18818;SDS011;9537;45.594;9.294;2023-01-29T03:46:57;32.27;;;16.93;;
18818;SDS011;9537;45.594;9.294;2023-01-29T03:48:09;28.20;;;14.80;;
18818;SDS011;9537;45.594;9.294;2023-01-29T03:49:17;26.30;;;15.43;;
18818;SDS011;9537;45.594;9.294;2023-01-29T03:50:26;30.33;;;16.47;;
18818;SDS011;9537;45.594;9.294;2023-01-29T03:51:37;32.27;;;17.07;;
18818;SDS011;9537;45.594;9.294;2023-01-29T03:52:46;28.17;;;15.80;;
18818;SDS011;9537;45.594;9.294;2023-01-29T03:53:52;30.53;;;15.87;;
18818;SDS011;9537;45.594;9.294;2023-01-29T03:55:06;31.13;;;16.73;;
18818;SDS011;9537;45.594;9.294;2023-01-29T03:56:17;31.55;;;20.35;;
18818;SDS011;9537;45.594;9.294;2023-01-29T03:57:30;30.63;;;19.73;;
18818;SDS011;9537;45.594;9.294;2023-01-29T03:58:37;28.60;;;15.47;;
18818;SDS011;9537;45.594;9.294;2023-01-29T03:59:44;31.33;;;16.67;;
18818;SDS011;9537;45.594;9.294;2023-01-29T04:00:54;36.47;;;21.70;;
18818;SDS011;9537;45.594;9.294;2023-01-29T04:02:03;25.27;;;14.82;;
18818;SDS011;9537;45.594;9.294;2023-01-29T04:03:13;34.37;;;21.53;;
18818;SDS011;9537;45.594;9.294;2023-01-29T04:04:20;37.80;;;21.20;;
18818;SDS011;9537;45.594;9.294;2023-01-29T04:05:26;33.87;;;21.77;;
18818;SDS011;9537;45.594;9.294;2023-01-29T04:06:34;28.60;;;15.60;;
18818;SDS011;9537;45.594;9.294;2023-01-29T04:07:39;29.20;;;15.17;;
18818;SDS011;9537;45.594;9.294;2023-01-29T04:08:44;34.80;;;15.83;;
18818;SDS011;9537;45.594;9.294;2023-01-29T04:09:52;33.93;;;18.93;;
18818;SDS011;9537;45.594;9.294;2023-01-29T04:10:58;30.43;;;16.10;;
18818;SDS011;9537;45.594;9.294;2023-01-29T04:12:03;28.50;;;15.73;;
18818;SDS011;9537;45.594;9.294;2023-01-29T04:13:09;29.53;;;15.87;;
18818;SDS011;9537;45.594;9.294;2023-01-29T04:14:13;29.03;;;15.33;;
18818;SDS011;9537;45.594;9.294;2023-01-29T04:15:15;31.80;;;15.37;;
18818;SDS011;9537;45.594;9.294;2023-01-29T04:16:19;28.03;;;15.77;;
18818;SDS011;9537;45.594;9.294;2023-01-29T04:17:26;28.07;;;15.73;;
18818;SDS011;9537;45.594;9.294;2023-01-29T04:18:33;26.80;;;16.73;;
18818;SDS011;9537;45.594;9.294;2023-01-29T04:19:36;30.63;;;17.23;;
18818;SDS011;9537;45.594;9.294;2023-01-29T04:20:38;28.20;;;15.17;;
18818;SDS011;9537;45.594;9.294;2023-01-29T04:21:40;27.20;;;17.07;;
18818;SDS011;9537;45.594;9.294;2023-01-29T04:22:44;26.37;;;15.23;;
18818;SDS011;9537;45.594;9.294;2023-01-29T04:23:46;27.07;;;15.13;;
18818;SDS011;9537;45.594;9.294;2023-01-29T04:24:47;34.23;;;15.63;;
18818;SDS011;9537;45.594;9.294;2023-01-29T04:25:52;26.83;;;15.67;;
18818;SDS011;9537;45.594;9.294;2023-01-29T04:27:09;26.30;;;15.63;;
18818;SDS011;9537;45.594;9.294;2023-01-29T04:28:25;27.30;;;15.17;;
18818;SDS011;9537;45.594;9.294;2023-01-29T04:29:47;26.53;;;14.90;;
18818;SDS011;9537;45.594;9.294;2023-01-29T04:30:58;32.67;;;15.47;;
18818;SDS011;9537;45.594;9.294;2023-01-29T04:32:06;29.13;;;16.53;;
18818;SDS011;9537;45.594;9.294;2023-01-29T04:33:20;26.80;;;15.33;;
18818;SDS011;9537;45.594;9.294;2023-01-29T04:34:28;26.00;;;14.13;;
18818;SDS011;9537;45.594;9.294;2023-01-29T04:35:41;30.03;;;14.87;;
18818;SDS011;9537;45.594;9.294;2023-01-29T04:36:54;27.65;;;14.55;;
18818;SDS011;9537;45.594;9.294;2023-01-29T04:38:07;25.23;;;13.98;;
18818;SDS011;9537;45.594;9.294;2023-01-29T04:39:19;27.60;;;15.47;;
18818;SDS011;9537;45.594;9.294;2023-01-29T04:40:26;26.23;;;15.32;;
18818;SDS011;9537;45.594;9.294;2023-01-29T04:41:37;28.50;;;15.30;;
18818;SDS011;9537;45.594;9.294;2023-01-29T04:42:47;30.45;;;19.00;;
18818;SDS011;9537;45.594;9.294;2023-01-29T04:43:57;27.38;;;14.40;;
18818;SDS011;9537;45.594;9.294;2023-01-29T04:45:03;30.35;;;15.98;;
18818;SDS011;9537;45.594;9.294;2023-01-29T04:46:13;24.77;;;14.27;;
18818;SDS011;9537;45.594;9.294;2023-01-29T04:47:20;22.88;;;14.40;;
18818;SDS011;9537;45.594;9.294;2023-01-29T04:48:34;23.75;;;13.88;;
18818;SDS011;9537;45.594;9.294;2023-01-29T04:49:46;29.53;;;16.43;;
18818;SDS011;9537;45.594;9.294;2023-01-29T04:50:57;29.33;;;15.03;;
18818;SDS011;9537;45.594;9.294;2023-01-29T04:52:06;26.03;;;14.40;;
18818;SDS011;9537;45.594;9.294;2023-01-29T04:53:16;24.30;;;13.93;;
18818;SDS011;9537;45.594;9.294;2023-01-29T04:54:25;27.33;;;15.53;;
18818;SDS011;9537;45.594;9.294;2023-01-29T04:55:37;31.35;;;19.27;;
18818;SDS011;9537;45.594;9.294;2023-01-29T04:56:45;29.27;;;16.63;;
18818;SDS011;9537;45.594;9.294;2023-01-29T04:57:53;28.97;;;19.07;;
18818;SDS011;9537;45.594;9.294;2023-01-29T04:59:02;30.60;;;17.45;;
18818;SDS011;9537;45.594;9.294;2023-01-29T05:00:08;31.42;;;19.25;;
18818;SDS011;9537;45.594;9.294;2023-01-29T05:01:16;27.92;;;18.80;;
18818;SDS011;9537;45.594;9.294;2023-01-29T05:02:21;30.38;;;17.00;;
18818;SDS011;9537;45.594;9.294;2023-01-29T05:03:26;26.13;;;15.10;;
18818;SDS011;9537;45.594;9.294;2023-01-29T05:04:33;29.63;;;18.53;;
18818;SDS011;9537;45.594;9.294;2023-01-29T05:05:37;23.53;;;15.50;;
18818;SDS011;9537;45.594;9.294;2023-01-29T05:06:41;27.70;;;15.63;;
18818;SDS011;9537;45.594;9.294;2023-01-29T05:07:46;31.87;;;18.93;;
18818;SDS011;9537;45.594;9.294;2023-01-29T05:08:49;25.90;;;14.23;;
18818;SDS011;9537;45.594;9.294;2023-01-29T05:09:51;27.48;;;14.32;;
18818;SDS011;9537;45.594;9.294;2023-01-29T05:10:54;26.40;;;14.17;;
18818;SDS011;9537;45.594;9.294;2023-01-29T05:11:57;29.20;;;15.02;;
18818;SDS011;9537;45.594;9.294;2023-01-29T05:13:01;25.97;;;15.03;;
18818;SDS011;9537;45.594;9.294;2023-01-29T05:14:06;23.50;;;13.70;;
18818;SDS011;9537;45.594;9.294;2023-01-29T05:15:13;27.58;;;15.20;;
18818;SDS011;9537;45.594;9.294;2023-01-29T05:16:19;27.03;;;14.53;;
18818;SDS011;9537;45.594;9.294;2023-01-29T05:17:26;24.40;;;14.80;;
18818;SDS011;9537;45.594;9.294;2023-01-29T05:18:28;30.20;;;15.17;;
18818;SDS011;9537;45.594;9.294;2023-01-29T05:19:31;28.13;;;15.18;;
18818;SDS011;9537;45.594;9.294;2023-01-29T05:20:33;25.60;;;13.77;;
18818;SDS011;9537;45.594;9.294;2023-01-29T05:21:39;26.48;;;14.15;;
18818;SDS011;9537;45.594;9.294;2023-01-29T05:22:43;26.58;;;15.18;;
18818;SDS011;9537;45.594;9.294;2023-01-29T05:25:11;34.00;;;19.92;;
18818;SDS011;9537;45.594;9.294;2023-01-29T05:26:22;28.13;;;18.37;;
18818;SDS011;9537;45.594;9.294;2023-01-29T05:27:41;31.17;;;19.23;;
18818;SDS011;9537;45.594;9.294;2023-01-29T05:29:01;28.27;;;15.95;;
18818;SDS011;9537;45.594;9.294;2023-01-29T05:30:02;30.87;;;18.83;;
18818;SDS011;9537;45.594;9.294;2023-01-29T05:31:04;30.13;;;18.07;;
18818;SDS011;9537;45.594;9.294;2023-01-29T05:32:06;25.03;;;14.33;;
18818;SDS011;9537;45.594;9.294;2023-01-29T05:33:10;24.93;;;13.33;;
18818;SDS011;9537;45.594;9.294;2023-01-29T05:34:14;25.60;;;14.20;;
18818;SDS011;9537;45.594;9.294;2023-01-29T05:35:17;31.43;;;17.93;;
18818;SDS011;9537;45.594;9.294;2023-01-29T05:36:19;23.70;;;13.37;;
18818;SDS011;9537;45.594;9.294;2023-01-29T05:37:19;25.47;;;15.20;;
18818;SDS011;9537;45.594;9.294;2023-01-29T05:38:21;26.83;;;14.00;;
18818;SDS011;9537;45.594;9.294;2023-01-29T05:39:23;27.30;;;14.93;;
18818;SDS011;9537;45.594;9.294;2023-01-29T05:40:25;26.13;;;14.90;;
18818;SDS011;9537;45.594;9.294;2023-01-29T05:41:26;26.70;;;13.53;;
18818;SDS011;9537;45.594;9.294;2023-01-29T05:42:28;25.73;;;14.98;;
18818;SDS011;9537;45.594;9.294;2023-01-29T05:43:28;23.53;;;13.43;;
18818;SDS011;9537;45.594;9.294;2023-01-29T05:44:31;31.60;;;15.83;;
18818;SDS011;9537;45.594;9.294;2023-01-29T05:45:32;30.53;;;14.67;;
18818;SDS011;9537;45.594;9.294;2023-01-29T05:46:33;27.87;;;15.80;;
18818;SDS011;9537;45.594;9.294;2023-01-29T05:47:34;27.97;;;14.50;;
18818;SDS011;9537;45.594;9.294;2023-01-29T05:48:36;29.20;;;18.40;;
18818;SDS011;9537;45.594;9.294;2023-01-29T05:49:38;27.10;;;15.70;;
18818;SDS011;9537;45.594;9.294;2023-01-29T05:50:40;28.27;;;16.50;;
18818;SDS011;9537;45.594;9.294;2023-01-29T05:51:42;26.37;;;15.83;;
18818;SDS011;9537;45.594;9.294;2023-01-29T05:52:43;30.52;;;15.18;;
18818;SDS011;9537;45.594;9.294;2023-01-29T05:53:45;29.17;;;15.57;;
18818;SDS011;9537;45.594;9.294;2023-01-29T05:54:46;25.77;;;14.97;;
18818;SDS011;9537;45.594;9.294;2023-01-29T05:55:48;26.23;;;14.20;;
18818;SDS011;9537;45.594;9.294;2023-01-29T05:56:49;25.63;;;14.43;;
18818;SDS011;9537;45.594;9.294;2023-01-29T05:57:51;27.93;;;15.07;;
18818;SDS011;9537;45.594;9.294;2023-01-29T05:58:52;28.20;;;14.80;;
18818;SDS011;9537;45.594;9.294;2023-01-29T05:59:54;27.93;;;16.97;;
18818;SDS011;9537;45.594;9.294;2023-01-29T06:00:55;31.83;;;14.50;;
18818;SDS011;9537;45.594;9.294;2023-01-29T06:01:57;28.05;;;14.43;;
18818;SDS011;9537;45.594;9.294;2023-01-29T06:02:58;28.90;;;15.57;;
18818;SDS011;9537;45.594;9.294;2023-01-29T06:04:00;23.80;;;13.60;;
18818;SDS011;9537;45.594;9.294;2023-01-29T06:05:01;25.70;;;13.77;;
18818;SDS011;9537;45.594;9.294;2023-01-29T06:06:06;30.17;;;14.97;;
18818;SDS011;9537;45.594;9.294;2023-01-29T06:07:07;25.63;;;13.70;;
18818;SDS011;9537;45.594;9.294;2023-01-29T06:08:10;25.25;;;14.55;;
18818;SDS011;9537;45.594;9.294;2023-01-29T06:09:11;24.10;;;14.10;;
18818;SDS011;9537;45.594;9.294;2023-01-29T06:10:16;27.60;;;14.90;;
18818;SDS011;9537;45.594;9.294;2023-01-29T06:11:18;30.37;;;16.30;;
18818;SDS011;9537;45.594;9.294;2023-01-29T06:12:21;24.60;;;13.33;;
18818;SDS011;9537;45.594;9.294;2023-01-29T06:13:22;25.20;;;12.43;;
18818;SDS011;9537;45.594;9.294;2023-01-29T06:14:24;27.57;;;13.33;;
18818;SDS011;9537;45.594;9.294;2023-01-29T06:15:27;23.90;;;13.27;;
18818;SDS011;9537;45.594;9.294;2023-01-29T06:16:29;23.13;;;13.23;;
18818;SDS011;9537;45.594;9.294;2023-01-29T06:17:30;24.20;;;14.80;;
18818;SDS011;9537;45.594;9.294;2023-01-29T06:18:32;26.07;;;14.27;;
18818;SDS011;9537;45.594;9.294;2023-01-29T06:19:34;24.70;;;13.20;;
18818;SDS011;9537;45.594;9.294;2023-01-29T06:20:36;27.42;;;16.90;;
18818;SDS011;9537;45.594;9.294;2023-01-29T06:21:39;23.47;;;13.90;;
18818;SDS011;9537;45.594;9.294;2023-01-29T06:22:40;24.90;;;13.10;;
18818;SDS011;9537;45.594;9.294;2023-01-29T06:23:42;25.05;;;12.68;;
18818;SDS011;9537;45.594;9.294;2023-01-29T06:24:44;22.48;;;12.80;;
18818;SDS011;9537;45.594;9.294;2023-01-29T06:25:45;22.70;;;12.50;;
18818;SDS011;9537;45.594;9.294;2023-01-29T06:26:47;28.25;;;16.70;;
18818;SDS011;9537;45.594;9.294;2023-01-29T06:27:49;24.53;;;14.00;;
18818;SDS011;9537;45.594;9.294;2023-01-29T06:28:51;26.88;;;17.75;;
18818;SDS011;9537;45.594;9.294;2023-01-29T06:29:53;24.42;;;14.00;;
18818;SDS011;9537;45.594;9.294;2023-01-29T06:30:55;29.93;;;17.90;;
18818;SDS011;9537;45.594;9.294;2023-01-29T06:31:58;24.48;;;13.52;;
18818;SDS011;9537;45.594;9.294;2023-01-29T06:32:58;25.83;;;14.23;;
18818;SDS011;9537;45.594;9.294;2023-01-29T06:34:02;22.17;;;12.77;;
18818;SDS011;9537;45.594;9.294;2023-01-29T06:35:04;27.20;;;13.85;;
18818;SDS011;9537;45.594;9.294;2023-01-29T06:36:07;28.23;;;14.48;;
18818;SDS011;9537;45.594;9.294;2023-01-29T06:37:09;24.27;;;13.67;;
18818;SDS011;9537;45.594;9.294;2023-01-29T06:38:12;23.65;;;12.95;;
18818;SDS011;9537;45.594;9.294;2023-01-29T06:39:13;23.30;;;15.33;;